Terminal Aerodrome Forecast
Issued by NWS

Home | Current Version | Previous Version | Text Only | Print | Product List | Glossary On
Versions: 1 2 3 4 5 6 7 8 9 10 11 12 13 14 15
000
FTUS42 TJSJ 240033 AAA
TAFJBQ
TAF AMD
TJBQ 240033Z 2401/2424 09010KT P6SM VCSH SCT030
      TEMPO 2401/2403 BKN025
     FM241300 08012KT P6SM FEW025
     FM241630 08015G22KT P6SM VCTS BKN030CB
     FM242300 10008KT P6SM FEW025
      AMD NOT SKED 2402/2411=

USA.gov is the U.S. government's official web portal to all federal, state and local government web resources and services.